Saint-Philippe-De-Neri, Canada
Current Conditions -  °F | °C
As of 10:25 PM on Saturday 20 Dec 2014 (Local Time) from KFVE Reporting Station
Overcast Overcast  
Wind Chill: -11°   Ceiling: 600
Heat Index: -11°   Visibility: 10mi
Dew Point: -12°   Wind: 3mph
Humidity: 92%   Direction: 240°WSW
Pressure: 30.32"   Gusts: NA
Location:  47.45°N, 69.88°W
Report Text: KFVE 210325Z AUTO 24003KT 10SM OVC006 M11/M12 A3032 RMK AO2 T11061117
Loading
Personal Weather Stations






























Interactive Weather Map New forecast layout! Learn more

10-Day Weather Forecast

Advertisements
Track Severe Weather on mobile